createdAt,value
2022-12-25T00:01:18.227Z,6.92
2022-12-25T00:03:51.462Z,6.92
2022-12-25T00:06:20.226Z,6.91
2022-12-25T00:08:48.389Z,6.91
2022-12-25T00:11:20.000Z,6.90
2022-12-25T00:13:48.921Z,6.90
2022-12-25T00:16:21.861Z,6.88
2022-12-25T00:18:51.488Z,6.88
2022-12-25T00:21:21.796Z,6.87
2022-12-25T00:24:01.733Z,6.86
2022-12-25T00:26:30.059Z,6.84
2022-12-25T00:28:59.805Z,6.80
2022-12-25T00:31:28.111Z,6.80
2022-12-25T00:33:56.423Z,6.78
2022-12-25T00:36:24.876Z,6.75
2022-12-25T00:38:53.020Z,6.71
2022-12-25T00:41:42.613Z,6.67
2022-12-25T00:44:16.304Z,6.63
2022-12-25T00:46:44.640Z,6.59
2022-12-25T00:49:13.606Z,6.57
2022-12-25T00:51:41.798Z,6.53
2022-12-25T00:54:10.298Z,6.47
2022-12-25T00:56:38.536Z,6.44
2022-12-25T00:59:06.748Z,6.39
2022-12-25T01:01:35.066Z,6.34
2022-12-25T01:04:04.249Z,6.32
2022-12-25T01:06:33.104Z,6.30
2022-12-25T01:09:20.061Z,6.33
2022-12-25T01:11:48.259Z,6.32
2022-12-25T01:14:16.500Z,6.31
2022-12-25T01:16:44.877Z,6.33
2022-12-25T01:19:13.258Z,6.36
2022-12-25T01:21:41.491Z,6.37
2022-12-25T01:24:09.737Z,6.38
2022-12-25T01:26:38.166Z,6.39
2022-12-25T01:29:07.238Z,6.40
2022-12-25T01:31:35.681Z,6.41
2022-12-25T01:34:03.831Z,6.42
2022-12-25T01:36:31.976Z,6.43
2022-12-25T01:39:00.166Z,6.44
2022-12-25T01:41:28.284Z,6.46
2022-12-25T01:44:19.437Z,6.44
2022-12-25T01:46:47.577Z,6.44
2022-12-25T01:49:22.572Z,6.44
2022-12-25T01:52:03.268Z,6.44
2022-12-25T01:54:41.644Z,6.41
2022-12-25T01:57:19.109Z,6.39
2022-12-25T01:59:48.137Z,6.38
2022-12-25T02:02:16.517Z,6.36
2022-12-25T02:05:10.379Z,6.34
2022-12-25T02:07:41.364Z,6.32
2022-12-25T02:10:12.848Z,6.31
2022-12-25T02:12:41.605Z,6.31
2022-12-25T02:15:20.978Z,6.29
2022-12-25T02:18:05.955Z,6.29
2022-12-25T02:20:43.737Z,6.28
2022-12-25T02:23:50.268Z,6.28
2022-12-25T02:26:50.277Z,6.27
2022-12-25T02:29:55.519Z,6.26
2022-12-25T02:32:39.549Z,6.25
2022-12-25T02:35:17.247Z,6.25
2022-12-25T02:37:52.396Z,6.28
2022-12-25T02:40:45.096Z,6.29
2022-12-25T02:43:55.373Z,6.29
2022-12-25T02:46:43.405Z,6.26
2022-12-25T02:49:37.166Z,6.23
2022-12-25T02:52:33.562Z,6.23
2022-12-25T02:56:14.038Z,6.22
2022-12-25T02:59:03.525Z,6.20
2022-12-25T03:01:53.568Z,6.20
2022-12-25T03:04:43.809Z,6.20
2022-12-25T03:07:21.105Z,6.17
2022-12-25T03:10:19.345Z,6.15
2022-12-25T03:12:57.298Z,6.17
2022-12-25T03:15:44.936Z,6.18
2022-12-25T03:18:18.209Z,6.16
2022-12-25T03:21:27.114Z,6.13
2022-12-25T03:24:19.609Z,6.10
2022-12-25T03:26:57.657Z,6.12
2022-12-25T03:29:51.422Z,6.15
2022-12-25T03:32:32.447Z,6.16
2022-12-25T03:35:23.239Z,6.17
2022-12-25T03:38:50.128Z,6.17
2022-12-25T03:42:03.984Z,6.17
2022-12-25T03:44:51.937Z,6.18
2022-12-25T03:47:49.849Z,6.18
2022-12-25T03:51:00.112Z,6.16
2022-12-25T03:54:00.248Z,6.12
2022-12-25T03:56:49.547Z,6.11
2022-12-25T03:59:42.157Z,6.14
2022-12-25T04:02:29.058Z,6.16
2022-12-25T04:05:16.231Z,6.15
2022-12-25T04:08:02.945Z,6.13
2022-12-25T04:10:49.588Z,6.10
2022-12-25T04:13:36.506Z,6.07
2022-12-25T04:16:24.017Z,6.02
2022-12-25T04:19:10.793Z,6.00
2022-12-25T04:21:57.783Z,5.95
2022-12-25T04:24:44.707Z,5.92
2022-12-25T04:27:31.715Z,5.91
2022-12-25T04:30:18.790Z,5.87
2022-12-25T04:33:05.670Z,5.84
2022-12-25T04:35:52.502Z,5.86
2022-12-25T04:38:21.188Z,5.87
2022-12-25T04:40:49.421Z,5.87
2022-12-25T04:43:17.536Z,5.88
2022-12-25T04:45:53.961Z,5.89
2022-12-25T04:48:23.036Z,5.90
2022-12-25T04:50:51.433Z,5.90
2022-12-25T04:53:20.032Z,5.87
2022-12-25T04:55:48.439Z,5.84
2022-12-25T04:58:16.588Z,5.81
2022-12-25T05:00:44.786Z,5.79
2022-12-25T05:03:13.070Z,5.76
2022-12-25T05:05:41.409Z,5.72
2022-12-25T05:08:09.563Z,5.68
2022-12-25T05:10:40.565Z,5.66
2022-12-25T05:13:08.777Z,5.63
2022-12-25T05:15:41.168Z,5.60
2022-12-25T05:18:09.883Z,5.59
2022-12-25T05:20:40.220Z,5.56
2022-12-25T05:23:12.443Z,5.55
2022-12-25T05:25:40.933Z,5.57
2022-12-25T05:28:09.333Z,5.58
2022-12-25T05:30:37.548Z,5.58
2022-12-25T05:33:05.631Z,5.59
2022-12-25T05:35:37.499Z,5.60
2022-12-25T05:38:07.611Z,5.59
2022-12-25T05:40:41.075Z,5.59
2022-12-25T05:43:09.676Z,5.59
2022-12-25T05:45:37.858Z,5.58
2022-12-25T05:48:06.411Z,5.57
2022-12-25T05:50:39.627Z,5.56
2022-12-25T05:53:14.864Z,5.56
2022-12-25T05:55:44.540Z,5.53
2022-12-25T05:58:13.977Z,5.51
2022-12-25T06:00:43.983Z,5.49
2022-12-25T06:03:12.483Z,5.46
2022-12-25T06:05:40.718Z,5.43
2022-12-25T06:08:08.832Z,5.44
2022-12-25T06:10:37.085Z,5.43
2022-12-25T06:13:05.624Z,5.43
2022-12-25T06:15:34.085Z,5.42
2022-12-25T06:18:02.422Z,5.40
2022-12-25T06:20:30.699Z,5.39
2022-12-25T06:22:59.832Z,5.36
2022-12-25T06:25:27.914Z,5.35
2022-12-25T06:27:56.145Z,5.33
2022-12-25T06:30:24.483Z,5.29
2022-12-25T06:32:52.657Z,5.26
2022-12-25T06:35:20.896Z,5.24
2022-12-25T06:37:49.074Z,5.22
2022-12-25T06:40:17.329Z,5.20
2022-12-25T06:42:45.487Z,5.17
2022-12-25T06:45:13.805Z,5.17
2022-12-25T06:47:42.028Z,5.20
2022-12-25T06:50:10.276Z,5.19
2022-12-25T06:52:38.467Z,5.21
2022-12-25T06:55:08.401Z,5.24
2022-12-25T06:57:36.688Z,5.28
2022-12-25T07:00:06.774Z,5.29
2022-12-25T07:02:35.495Z,5.30
2022-12-25T07:05:05.481Z,5.34
2022-12-25T07:07:33.973Z,5.38
2022-12-25T07:10:02.161Z,5.43
2022-12-25T07:12:30.430Z,5.47
2022-12-25T07:14:58.819Z,5.52
2022-12-25T07:17:27.001Z,5.54
2022-12-25T07:19:56.748Z,5.56
2022-12-25T07:22:25.011Z,5.56
2022-12-25T07:24:53.266Z,5.56
2022-12-25T07:27:21.492Z,5.55
2022-12-25T07:29:49.820Z,5.57
2022-12-25T07:32:17.982Z,5.60
2022-12-25T07:34:46.064Z,5.63
2022-12-25T07:37:14.375Z,5.66
2022-12-25T07:39:42.575Z,5.69
2022-12-25T07:42:10.737Z,5.71
2022-12-25T07:44:39.357Z,5.71
2022-12-25T07:47:07.525Z,5.71
2022-12-25T07:49:36.414Z,5.70
2022-12-25T07:52:04.914Z,5.68
2022-12-25T07:54:33.075Z,5.66
2022-12-25T07:57:01.304Z,5.65
2022-12-25T07:59:29.580Z,5.65
2022-12-25T08:01:57.861Z,5.67
2022-12-25T08:04:26.257Z,5.69
2022-12-25T08:06:54.415Z,5.72
2022-12-25T08:09:22.703Z,5.76
2022-12-25T08:11:50.795Z,5.83
2022-12-25T08:14:19.090Z,5.95
2022-12-25T08:16:47.359Z,6.07
2022-12-25T08:19:15.668Z,6.20
2022-12-25T08:21:43.903Z,6.28
2022-12-25T08:24:12.057Z,6.37
2022-12-25T08:26:40.265Z,6.46
2022-12-25T08:29:08.508Z,6.54
2022-12-25T08:31:42.412Z,6.61
2022-12-25T08:34:12.348Z,6.68
2022-12-25T08:36:41.587Z,6.74
2022-12-25T08:39:10.124Z,6.82
2022-12-25T08:41:38.276Z,6.89
2022-12-25T08:44:07.078Z,6.97
2022-12-25T08:46:36.831Z,7.05
2022-12-25T08:49:05.576Z,7.13
2022-12-25T08:51:34.482Z,7.22
2022-12-25T08:54:03.008Z,7.31
2022-12-25T08:56:31.188Z,7.37
2022-12-25T08:58:59.298Z,7.43
2022-12-25T09:01:27.576Z,7.49
2022-12-25T09:03:55.955Z,7.56
2022-12-25T09:06:24.103Z,7.68
2022-12-25T09:08:52.455Z,7.82
2022-12-25T09:11:20.886Z,7.91
2022-12-25T09:13:49.800Z,8.01
2022-12-25T09:16:22.466Z,8.08
2022-12-25T09:18:51.248Z,8.16
2022-12-25T09:21:19.649Z,8.18
2022-12-25T09:23:47.922Z,8.21
2022-12-25T09:26:18.756Z,8.23
2022-12-25T09:28:51.891Z,8.28
2022-12-25T09:31:22.927Z,8.33
2022-12-25T09:33:51.758Z,8.37
2022-12-25T09:36:23.381Z,8.40
2022-12-25T09:38:52.983Z,8.41
2022-12-25T09:41:31.765Z,8.43
2022-12-25T09:44:26.973Z,8.48
2022-12-25T09:47:01.767Z,8.55
2022-12-25T09:49:47.027Z,8.61
2022-12-25T09:52:35.943Z,8.65
2022-12-25T09:55:20.436Z,8.69
2022-12-25T09:57:56.792Z,8.73
2022-12-25T10:00:38.635Z,8.76
2022-12-25T10:03:24.958Z,8.81
2022-12-25T10:06:18.643Z,8.87
2022-12-25T10:09:42.560Z,8.95
2022-12-25T10:12:32.408Z,9.06
2022-12-25T10:15:24.820Z,9.16
2022-12-25T10:18:30.315Z,9.22
2022-12-25T10:21:04.759Z,9.28
2022-12-25T10:23:48.281Z,9.33
2022-12-25T10:26:25.195Z,9.30
2022-12-25T10:29:05.771Z,9.19
2022-12-25T10:31:37.276Z,9.11
2022-12-25T10:34:06.888Z,9.05
2022-12-25T10:36:35.185Z,9.00
2022-12-25T10:39:04.075Z,8.96
2022-12-25T10:41:49.003Z,8.94
2022-12-25T10:44:24.582Z,8.93
2022-12-25T10:47:04.654Z,8.91
2022-12-25T10:49:39.358Z,8.91
2022-12-25T10:52:52.176Z,8.92
2022-12-25T10:55:26.612Z,8.98
2022-12-25T10:57:58.020Z,9.08
2022-12-25T11:00:30.418Z,9.20
2022-12-25T11:02:59.851Z,9.36
2022-12-25T11:05:36.060Z,9.51
2022-12-25T11:08:15.729Z,9.63
2022-12-25T11:10:44.234Z,9.76
2022-12-25T11:13:28.601Z,9.91
2022-12-25T11:16:06.213Z,10.03
2022-12-25T11:18:50.429Z,10.12
2022-12-25T11:21:30.908Z,10.19
2022-12-25T11:24:17.837Z,10.26
2022-12-25T11:26:50.246Z,10.32
2022-12-25T11:29:55.210Z,10.36
2022-12-25T11:32:32.900Z,10.33
2022-12-25T11:35:03.022Z,10.27
2022-12-25T11:37:43.566Z,10.27
2022-12-25T11:40:29.185Z,10.28
2022-12-25T11:43:08.313Z,10.28
2022-12-25T11:45:49.058Z,10.32
2022-12-25T11:48:34.152Z,10.37
2022-12-25T11:51:06.051Z,10.41
2022-12-25T11:53:41.366Z,10.48
2022-12-25T11:56:24.411Z,10.55
2022-12-25T11:59:17.802Z,10.63
2022-12-25T12:01:57.132Z,10.63
2022-12-25T12:04:42.763Z,10.53
2022-12-25T12:07:29.434Z,10.45
2022-12-25T12:10:17.246Z,10.41
2022-12-25T12:13:20.827Z,10.40
2022-12-25T12:15:50.635Z,10.39
2022-12-25T12:18:25.907Z,10.38
2022-12-25T12:21:21.521Z,10.34
2022-12-25T12:24:21.677Z,10.27
2022-12-25T12:27:17.305Z,10.20
2022-12-25T12:29:50.812Z,10.16
2022-12-25T12:32:34.165Z,10.12
2022-12-25T12:35:24.730Z,10.07
2022-12-25T12:37:59.672Z,9.99
2022-12-25T12:40:39.934Z,9.91
2022-12-25T12:43:35.581Z,9.84
2022-12-25T12:46:30.619Z,9.75
2022-12-25T12:49:22.692Z,9.65
2022-12-25T12:52:02.297Z,9.58
2022-12-25T12:54:30.488Z,9.55
2022-12-25T12:57:03.735Z,9.51
2022-12-25T12:59:46.171Z,9.45
2022-12-25T13:02:54.334Z,9.38
2022-12-25T13:05:42.287Z,9.33
2022-12-25T13:09:02.784Z,9.26
2022-12-25T13:11:40.878Z,9.19
2022-12-25T13:14:19.384Z,9.16
2022-12-25T13:16:51.796Z,9.14
2022-12-25T13:19:27.408Z,9.12
2022-12-25T13:21:58.965Z,9.09
2022-12-25T13:24:31.096Z,9.07
2022-12-25T13:26:59.651Z,9.06
2022-12-25T13:29:39.087Z,9.03
2022-12-25T13:32:19.516Z,8.98
2022-12-25T13:34:49.825Z,8.89
2022-12-25T13:37:22.722Z,8.78
2022-12-25T13:39:58.789Z,8.69
2022-12-25T13:42:33.764Z,8.62
2022-12-25T13:45:09.805Z,8.57
2022-12-25T13:47:43.249Z,8.52
2022-12-25T13:50:20.498Z,8.49
2022-12-25T13:52:49.555Z,8.45
2022-12-25T13:55:22.571Z,8.43
2022-12-25T13:58:05.581Z,8.40
2022-12-25T14:00:49.774Z,8.39
2022-12-25T14:03:21.935Z,8.36
2022-12-25T14:06:06.349Z,8.33
2022-12-25T14:08:35.944Z,8.28
2022-12-25T14:11:06.600Z,8.21
2022-12-25T14:13:41.671Z,8.11
2022-12-25T14:16:11.192Z,8.04
2022-12-25T14:18:55.444Z,7.98
2022-12-25T14:21:32.716Z,7.91
2022-12-25T14:24:01.020Z,7.84
2022-12-25T14:26:33.049Z,7.76
2022-12-25T14:29:18.207Z,7.69
2022-12-25T14:31:48.279Z,7.63
2022-12-25T14:34:22.800Z,7.59
2022-12-25T14:36:53.444Z,7.55
2022-12-25T14:39:38.494Z,7.53
2022-12-25T14:42:22.223Z,7.50
2022-12-25T14:45:00.320Z,7.47
2022-12-25T14:47:28.649Z,7.44
2022-12-25T14:49:56.901Z,7.40
2022-12-25T14:52:45.980Z,7.36
2022-12-25T14:55:40.553Z,7.31
2022-12-25T14:58:22.796Z,7.25
2022-12-25T15:01:01.799Z,7.18
2022-12-25T15:03:37.074Z,7.15
2022-12-25T15:06:20.770Z,7.12
2022-12-25T15:09:01.187Z,7.10
2022-12-25T15:11:29.910Z,7.08
2022-12-25T15:13:59.004Z,7.06
2022-12-25T15:16:51.524Z,7.04
2022-12-25T15:19:26.616Z,7.00
2022-12-25T15:21:58.362Z,6.97
2022-12-25T15:24:26.485Z,6.93
2022-12-25T15:26:55.430Z,6.89
2022-12-25T15:29:44.749Z,6.84
2022-12-25T15:32:24.005Z,6.80
2022-12-25T15:34:53.181Z,6.76
2022-12-25T15:37:21.366Z,6.74
2022-12-25T15:39:49.610Z,6.71
2022-12-25T15:42:22.959Z,6.67
2022-12-25T15:44:51.837Z,6.65
2022-12-25T15:47:21.110Z,6.63
2022-12-25T15:49:49.606Z,6.62
2022-12-25T15:52:18.386Z,6.61
2022-12-25T15:54:46.635Z,6.58
2022-12-25T15:57:23.714Z,6.54
2022-12-25T15:59:51.827Z,6.51
2022-12-25T16:02:21.386Z,6.49
2022-12-25T16:04:51.260Z,6.44
2022-12-25T16:07:23.490Z,6.38
2022-12-25T16:09:52.310Z,6.33
2022-12-25T16:12:20.576Z,6.30
2022-12-25T16:14:48.831Z,6.28
2022-12-25T16:17:17.041Z,6.26
2022-12-25T16:19:45.349Z,6.23
2022-12-25T16:22:28.454Z,6.21
2022-12-25T16:24:56.627Z,6.18
2022-12-25T16:27:25.355Z,6.16
2022-12-25T16:29:53.536Z,6.15
2022-12-25T16:32:21.674Z,6.14
2022-12-25T16:34:50.142Z,6.13
2022-12-25T16:37:18.488Z,6.12
2022-12-25T16:39:46.630Z,6.09
2022-12-25T16:42:14.791Z,6.06
2022-12-25T16:44:43.047Z,6.02
2022-12-25T16:47:11.273Z,5.97
2022-12-25T16:49:39.516Z,5.92
2022-12-25T16:52:07.731Z,5.87
2022-12-25T16:54:36.402Z,5.82
2022-12-25T16:57:04.575Z,5.75
2022-12-25T16:59:33.113Z,5.70
2022-12-25T17:02:01.447Z,5.64
2022-12-25T17:04:29.855Z,5.59
2022-12-25T17:06:58.056Z,5.53
2022-12-25T17:09:26.379Z,5.47
2022-12-25T17:11:54.626Z,5.42
2022-12-25T17:14:22.893Z,5.37
2022-12-25T17:16:51.337Z,5.33
2022-12-25T17:19:21.991Z,5.28
2022-12-25T17:21:51.302Z,5.23
2022-12-25T17:24:19.552Z,5.18
2022-12-25T17:26:48.557Z,5.12
2022-12-25T17:29:21.730Z,5.07
2022-12-25T17:31:51.593Z,5.03
2022-12-25T17:34:19.923Z,5.00
2022-12-25T17:36:48.210Z,4.95
2022-12-25T17:39:17.192Z,4.90
2022-12-25T17:41:45.522Z,4.85
2022-12-25T17:44:13.726Z,4.80
2022-12-25T17:46:42.306Z,4.77
2022-12-25T17:49:19.561Z,4.74
2022-12-25T17:51:48.558Z,4.68
2022-12-25T17:54:16.731Z,4.63
2022-12-25T17:56:44.769Z,4.58
2022-12-25T17:59:18.381Z,4.54
2022-12-25T18:01:48.250Z,4.50
2022-12-25T18:04:16.690Z,4.45
2022-12-25T18:06:44.973Z,4.40
2022-12-25T18:09:13.663Z,4.35
2022-12-25T18:11:43.459Z,4.30
2022-12-25T18:14:15.629Z,4.25
2022-12-25T18:16:46.958Z,4.20
2022-12-25T18:19:17.738Z,4.16
2022-12-25T18:21:45.982Z,4.13
2022-12-25T18:24:14.224Z,4.10
2022-12-25T18:26:42.471Z,4.09
2022-12-25T18:29:10.642Z,4.07
2022-12-25T18:31:39.005Z,4.04
2022-12-25T18:34:07.326Z,3.98
2022-12-25T18:36:36.957Z,3.90
2022-12-25T18:39:05.263Z,3.84
2022-12-25T18:41:53.393Z,3.77
2022-12-25T18:44:21.592Z,3.70
2022-12-25T18:46:49.841Z,3.65
2022-12-25T18:49:18.066Z,3.61
2022-12-25T18:51:48.104Z,3.57
2022-12-25T18:54:16.344Z,3.54
2022-12-25T18:56:47.405Z,3.51
2022-12-25T18:59:19.424Z,3.45
2022-12-25T19:01:47.688Z,3.41
2022-12-25T19:04:16.524Z,3.37
2022-12-25T19:06:45.360Z,3.34
2022-12-25T19:09:13.677Z,3.32
2022-12-25T19:11:46.578Z,3.28
2022-12-25T19:14:15.371Z,3.24
2022-12-25T19:16:44.568Z,3.20
2022-12-25T19:19:14.293Z,3.15
2022-12-25T19:21:42.599Z,3.12
2022-12-25T19:24:10.886Z,3.09
2022-12-25T19:26:39.486Z,3.07
2022-12-25T19:29:07.833Z,3.05
2022-12-25T19:31:38.176Z,3.05
2022-12-25T19:34:07.110Z,3.03
2022-12-25T19:36:36.477Z,3.03
2022-12-25T19:39:07.213Z,3.02
2022-12-25T19:41:35.468Z,2.99
2022-12-25T19:44:05.471Z,2.97
2022-12-25T19:46:40.744Z,2.94
2022-12-25T19:49:14.612Z,2.92
2022-12-25T19:51:46.351Z,2.89
2022-12-25T19:54:20.461Z,2.86
2022-12-25T19:56:49.487Z,2.83
2022-12-25T19:59:17.664Z,2.80
2022-12-25T20:01:45.998Z,2.78
2022-12-25T20:04:17.172Z,2.75
2022-12-25T20:06:45.476Z,2.70
2022-12-25T20:09:21.202Z,2.67
2022-12-25T20:11:49.995Z,2.64
2022-12-25T20:14:18.336Z,2.60
2022-12-25T20:16:46.777Z,2.57
2022-12-25T20:19:15.195Z,2.53
2022-12-25T20:21:43.295Z,2.51
2022-12-25T20:24:11.462Z,2.47
2022-12-25T20:26:39.848Z,2.43
2022-12-25T20:29:08.215Z,2.40
2022-12-25T20:31:36.613Z,2.38
2022-12-25T20:34:10.978Z,2.34
2022-12-25T20:36:39.845Z,2.29
2022-12-25T20:39:10.064Z,2.22
2022-12-25T20:41:40.725Z,2.17
2022-12-25T20:44:10.354Z,2.14
2022-12-25T20:46:38.919Z,2.10
2022-12-25T20:49:07.215Z,2.09
2022-12-25T20:51:35.765Z,2.06
2022-12-25T20:54:09.895Z,2.04
2022-12-25T20:56:38.365Z,2.02
2022-12-25T20:59:06.767Z,1.99
2022-12-25T21:01:35.152Z,1.98
2022-12-25T21:04:03.516Z,1.97
2022-12-25T21:06:31.849Z,1.96
2022-12-25T21:09:00.205Z,1.95
2022-12-25T21:11:30.552Z,1.94
2022-12-25T21:13:59.492Z,1.93
2022-12-25T21:16:28.575Z,1.92
2022-12-25T21:18:56.781Z,1.92
2022-12-25T21:21:25.496Z,1.92
2022-12-25T21:23:57.015Z,1.91
2022-12-25T21:26:29.735Z,1.92
2022-12-25T21:29:00.877Z,1.93
2022-12-25T21:31:30.738Z,1.91
2022-12-25T21:33:59.462Z,1.90
2022-12-25T21:36:34.576Z,1.89
2022-12-25T21:39:07.334Z,1.88
2022-12-25T21:41:38.312Z,1.88
2022-12-25T21:44:07.629Z,1.86
2022-12-25T21:46:35.905Z,1.83
2022-12-25T21:49:04.189Z,1.81
2022-12-25T21:51:53.149Z,1.79
2022-12-25T21:54:23.502Z,1.76
2022-12-25T21:56:51.840Z,1.73
2022-12-25T21:59:22.330Z,1.70
2022-12-25T22:01:52.297Z,1.67
2022-12-25T22:04:22.992Z,1.64
2022-12-25T22:07:10.377Z,1.61
2022-12-25T22:09:38.548Z,1.57
2022-12-25T22:12:31.916Z,1.51
2022-12-25T22:15:06.788Z,1.47
2022-12-25T22:17:59.708Z,1.44
2022-12-25T22:20:31.698Z,1.41
2022-12-25T22:22:59.944Z,1.39
2022-12-25T22:25:28.455Z,1.37
2022-12-25T22:27:57.773Z,1.37
2022-12-25T22:30:29.207Z,1.33
2022-12-25T22:32:58.131Z,1.33
2022-12-25T22:35:26.414Z,1.32
2022-12-25T22:37:55.030Z,1.32
2022-12-25T22:40:23.331Z,1.33
2022-12-25T22:42:55.210Z,1.33
2022-12-25T22:45:24.729Z,1.32
2022-12-25T22:47:53.022Z,1.29
2022-12-25T22:50:21.399Z,1.27
2022-12-25T22:52:49.636Z,1.24
2022-12-25T22:55:19.391Z,1.20
2022-12-25T22:57:49.117Z,1.14
2022-12-25T23:00:17.299Z,1.10
2022-12-25T23:02:45.699Z,1.06
2022-12-25T23:05:14.324Z,1.01
2022-12-25T23:07:42.514Z,0.96
2022-12-25T23:10:11.193Z,0.92
2022-12-25T23:13:22.742Z,0.88
2022-12-25T23:15:51.109Z,0.82
2022-12-25T23:18:38.141Z,0.79
2022-12-25T23:21:24.857Z,0.77
2022-12-25T23:24:11.520Z,0.72
2022-12-25T23:26:39.766Z,0.66
2022-12-25T23:29:26.749Z,0.63
2022-12-25T23:31:57.068Z,0.57
2022-12-25T23:34:26.209Z,0.54
2022-12-25T23:36:54.325Z,0.53
2022-12-25T23:39:22.465Z,0.52
2022-12-25T23:41:50.906Z,0.49
2022-12-25T23:44:19.246Z,0.45
2022-12-25T23:46:52.625Z,0.42
2022-12-25T23:49:24.051Z,0.39
2022-12-25T23:51:53.477Z,0.36
2022-12-25T23:54:26.750Z,0.33
2022-12-25T23:56:57.539Z,0.32
2022-12-25T23:59:29.861Z,0.29
